Gubakha, Russia
Current Conditions -  °F | °C
As of 6:00 PM on Monday 22 Dec 2014 (Local Time) from USPP Reporting Station
Overcast Overcast  
Wind Chill: 20°   Ceiling: 1400
Heat Index: 30°   Visibility: 6mi
Dew Point: 27°   Wind: 13mph
Humidity: 86%   Direction: 170°S
Pressure: 29.59"   Gusts: NA
Location:  58.87°N, 57.59°E
Report Text: USPP 221300Z 17006MPS 9999 OVC014 M01/M03 Q1002 21290150 NOSIGRMK QFE741/0988
Loading
Personal Weather Stations






























Interactive Weather Map New forecast layout! Learn more

10-Day Weather Forecast

Advertisements
Track Severe Weather on mobile